Time;durP1;ratioP1;P1;durP2;ratioP2;P2;SDS_P1;SDS_P2;PMS_P1;PMS_P2;Temp;Humidity;BMP_temperature;BMP_pressure;BME280_temperature;BME280_humidity;BME280_pressure;Samples;Min_cycle;Max_cycle;Signal;HPM_P1;HPM_P2
2023/01/14 00:00:38;;;;;;;14.47;2.53;;;;;;;;;;5063795;28;20234;-76
2023/01/14 00:03:03;;;;;;;10.40;2.50;;;;;;;;;;5070657;28;20552;-77
2023/01/14 00:05:28;;;;;;;7.67;2.13;;;;;;;;;;5066014;28;20289;-77
2023/01/14 00:07:54;;;;;;;8.57;2.13;;;;;;;;;;5056031;28;20207;-77
2023/01/14 00:10:19;;;;;;;7.03;1.90;;;;;;;;;;5056259;28;20184;-77
2023/01/14 00:12:44;;;;;;;14.47;2.10;;;;;;;;;;5053374;28;20174;-77
2023/01/14 00:15:09;;;;;;;18.20;2.50;;;;;;;;;;5056331;28;22309;-77
2023/01/14 00:17:35;;;;;;;10.53;2.20;;;;;;;;;;5052348;28;20224;-77
2023/01/14 00:20:00;;;;;;;12.60;2.57;;;;;;;;;;5057571;28;20751;-77
2023/01/14 00:22:28;;;;;;;10.73;2.27;;;;;;;;;;5067994;28;20189;-77
2023/01/14 00:24:53;;;;;;;7.00;2.10;;;;;;;;;;5054093;28;20180;-77
2023/01/14 00:27:18;;;;;;;15.73;2.07;;;;;;;;;;5050941;28;20223;-77
2023/01/14 00:29:44;;;;;;;12.13;3.20;;;;;;;;;;5050168;28;20189;-77
2023/01/14 00:32:09;;;;;;;10.33;2.63;;;;;;;;;;5054215;28;20639;-77
2023/01/14 00:34:37;;;;;;;8.37;2.43;;;;;;;;;;5054371;28;20185;-77
2023/01/14 00:37:03;;;;;;;5.67;1.47;;;;;;;;;;5055405;28;20729;-77
2023/01/14 00:39:28;;;;;;;6.90;1.87;;;;;;;;;;5055410;28;20612;-78
2023/01/14 00:41:53;;;;;;;8.30;1.87;;;;;;;;;;5068662;28;20181;-77
2023/01/14 00:44:19;;;;;;;7.70;1.87;;;;;;;;;;5069812;28;20185;-77
2023/01/14 00:46:44;;;;;;;9.03;2.57;;;;;;;;;;5072090;28;20220;-77
2023/01/14 00:49:17;;;;;;;9.60;2.23;;;;;;;;;;5072196;28;20229;-77
2023/01/14 00:51:42;;;;;;;11.73;2.63;;;;;;;;;;5058316;28;20190;-77
2023/01/14 00:54:08;;;;;;;8.27;2.00;;;;;;;;;;5059074;28;20273;-77
2023/01/14 00:56:33;;;;;;;15.10;2.80;;;;;;;;;;5059417;28;20231;-77
2023/01/14 00:58:58;;;;;;;20.43;3.17;;;;;;;;;;5069935;28;20284;-78
2023/01/14 01:01:23;;;;;;;8.73;2.40;;;;;;;;;;5059576;28;20169;-78
2023/01/14 01:03:53;;;;;;;10.47;2.03;;;;;;;;;;5069094;28;20172;-78
2023/01/14 01:06:19;;;;;;;17.57;3.80;;;;;;;;;;5069827;28;20197;-78
2023/01/14 01:08:44;;;;;;;8.20;2.00;;;;;;;;;;5065892;28;20192;-78
2023/01/14 01:11:10;;;;;;;11.83;2.13;;;;;;;;;;5068106;28;20173;-78
2023/01/14 01:13:36;;;;;;;15.10;2.90;;;;;;;;;;5071202;28;20173;-78
2023/01/14 01:16:03;;;;;;;9.93;2.53;;;;;;;;;;5071540;28;20211;-78
2023/01/14 01:18:29;;;;;;;10.27;2.67;;;;;;;;;;5071161;28;20212;-78
2023/01/14 01:21:04;;;;;;;18.17;3.07;;;;;;;;;;5072005;28;20173;-78
2023/01/14 01:23:30;;;;;;;12.07;2.53;;;;;;;;;;5070676;28;20255;-78
2023/01/14 01:26:03;;;;;;;17.37;2.13;;;;;;;;;;5063987;28;20260;-77
2023/01/14 01:28:28;;;;;;;8.87;2.30;;;;;;;;;;5086944;28;20310;-78
2023/01/14 01:30:53;;;;;;;13.17;2.43;;;;;;;;;;5071454;28;20215;-78
2023/01/14 01:33:19;;;;;;;10.33;2.73;;;;;;;;;;5071356;28;20188;-77
2023/01/14 01:35:44;;;;;;;12.70;3.70;;;;;;;;;;5070690;28;20199;-76
2023/01/14 01:38:09;;;;;;;12.07;2.33;;;;;;;;;;5083619;28;20487;-78
2023/01/14 01:40:35;;;;;;;9.20;2.33;;;;;;;;;;5069972;28;20886;-78
2023/01/14 01:43:00;;;;;;;12.10;2.80;;;;;;;;;;5063603;28;20177;-77
2023/01/14 01:45:28;;;;;;;16.00;3.77;;;;;;;;;;5070968;28;20200;-76
2023/01/14 01:47:56;;;;;;;10.40;2.77;;;;;;;;;;5070958;28;20628;-77
2023/01/14 01:50:21;;;;;;;12.17;2.97;;;;;;;;;;5070863;28;20568;-77
2023/01/14 01:52:47;;;;;;;9.47;2.10;;;;;;;;;;5071183;28;20177;-77
2023/01/14 01:55:12;;;;;;;10.60;2.77;;;;;;;;;;5071097;28;20173;-77
2023/01/14 01:57:38;;;;;;;14.07;2.97;;;;;;;;;;5062474;28;20204;-77
2023/01/14 02:00:06;;;;;;;9.17;2.70;;;;;;;;;;5070940;28;20231;-77
2023/01/14 02:02:32;;;;;;;7.90;2.00;;;;;;;;;;5071037;28;20234;-77
2023/01/14 02:04:57;;;;;;;14.37;4.37;;;;;;;;;;5067529;28;20189;-77
2023/01/14 02:07:23;;;;;;;10.50;2.60;;;;;;;;;;5069826;28;20553;-77
2023/01/14 02:09:56;;;;;;;12.40;2.60;;;;;;;;;;5070693;28;20192;-77
2023/01/14 02:12:27;;;;;;;16.10;3.87;;;;;;;;;;5071026;28;20756;-77
2023/01/14 02:15:08;;;;;;;16.03;3.00;;;;;;;;;;5070898;28;20185;-77
2023/01/14 02:17:51;;;;;;;8.13;1.90;;;;;;;;;;5070632;28;20200;-77
2023/01/14 02:20:24;;;;;;;12.80;3.03;;;;;;;;;;5070425;28;20234;-77
2023/01/14 02:23:10;;;;;;;12.40;2.80;;;;;;;;;;5070761;28;20208;-77
2023/01/14 02:26:02;;;;;;;14.83;3.07;;;;;;;;;;5078712;28;20193;-77
2023/01/14 02:28:39;;;;;;;12.00;3.53;;;;;;;;;;5070724;28;20661;-77
2023/01/14 02:31:10;;;;;;;17.30;4.80;;;;;;;;;;5074650;28;20172;-77
2023/01/14 02:33:38;;;;;;;13.93;2.97;;;;;;;;;;5074879;28;20290;-76
2023/01/14 02:36:06;;;;;;;12.47;2.63;;;;;;;;;;5074459;28;20286;-77
2023/01/14 02:38:39;;;;;;;13.13;2.80;;;;;;;;;;5073363;28;20205;-77
2023/01/14 02:41:04;;;;;;;16.23;2.50;;;;;;;;;;5069739;28;20193;-77
2023/01/14 02:46:19;;;;;;;10.90;2.87;;;;;;;;;;5071954;28;20208;-77
2023/01/14 02:48:45;;;;;;;14.43;5.27;;;;;;;;;;5072865;28;20181;-77
2023/01/14 02:51:10;;;;;;;20.50;2.63;;;;;;;;;;5074662;28;20173;-77
2023/01/14 02:53:36;;;;;;;11.53;3.23;;;;;;;;;;5075134;28;20176;-77
2023/01/14 02:56:01;;;;;;;18.60;3.37;;;;;;;;;;5083440;28;20258;-77
2023/01/14 02:58:32;;;;;;;18.17;3.10;;;;;;;;;;5071606;28;20305;-77
2023/01/14 03:01:16;;;;;;;13.17;3.73;;;;;;;;;;5069637;28;20172;-77
2023/01/14 03:03:42;;;;;;;18.40;3.10;;;;;;;;;;5074283;28;20170;-77
2023/01/14 03:06:16;;;;;;;21.53;3.33;;;;;;;;;;5074954;28;20199;-77
2023/01/14 03:08:41;;;;;;;11.70;3.10;;;;;;;;;;5073138;28;20196;-77
2023/01/14 03:11:07;;;;;;;27.90;6.10;;;;;;;;;;5076428;28;20173;-77
2023/01/14 03:13:38;;;;;;;16.10;4.20;;;;;;;;;;5074715;28;20200;-77
2023/01/14 03:16:06;;;;;;;23.10;4.20;;;;;;;;;;5074620;28;20232;-77
2023/01/14 03:18:43;;;;;;;16.67;6.33;;;;;;;;;;5074201;28;20196;-77
2023/01/14 03:21:11;;;;;;;15.47;3.70;;;;;;;;;;5078718;28;20176;-77
2023/01/14 03:23:39;;;;;;;14.50;3.83;;;;;;;;;;5074570;28;20169;-77
2023/01/14 03:26:07;;;;;;;12.50;4.53;;;;;;;;;;5074206;28;20196;-77
2023/01/14 03:28:35;;;;;;;18.87;3.40;;;;;;;;;;5073277;28;20459;-77
2023/01/14 03:31:08;;;;;;;18.63;3.60;;;;;;;;;;5074867;28;20521;-76
2023/01/14 03:33:35;;;;;;;13.07;3.93;;;;;;;;;;5074113;28;20251;-76
2023/01/14 03:36:01;;;;;;;16.23;4.00;;;;;;;;;;5072482;28;20278;-76
2023/01/14 03:38:33;;;;;;;16.40;3.57;;;;;;;;;;5073552;28;20353;-76
2023/01/14 03:40:59;;;;;;;13.20;3.17;;;;;;;;;;5072755;28;20172;-76
2023/01/14 03:43:33;;;;;;;24.07;3.70;;;;;;;;;;5073823;28;20536;-76
2023/01/14 03:45:59;;;;;;;16.57;3.97;;;;;;;;;;5071833;28;20271;-76
2023/01/14 03:48:25;;;;;;;21.23;4.73;;;;;;;;;;5074582;28;20193;-76
2023/01/14 03:51:05;;;;;;;27.20;5.23;;;;;;;;;;5075299;28;20185;-76
2023/01/14 03:53:35;;;;;;;19.37;4.23;;;;;;;;;;5074476;28;20208;-77
2023/01/14 03:56:21;;;;;;;18.30;4.10;;;;;;;;;;5073007;28;20685;-77
2023/01/14 03:58:46;;;;;;;19.40;5.17;;;;;;;;;;5072184;28;20571;-77
2023/01/14 04:01:29;;;;;;;14.23;3.60;;;;;;;;;;5069101;28;20173;-77
2023/01/14 04:03:54;;;;;;;14.87;4.60;;;;;;;;;;5076796;28;20743;-77
2023/01/14 04:06:20;;;;;;;20.43;3.80;;;;;;;;;;5070470;28;20204;-77
2023/01/14 04:08:45;;;;;;;18.73;3.90;;;;;;;;;;5072728;28;20196;-77
2023/01/14 04:11:10;;;;;;;16.77;5.13;;;;;;;;;;5073291;28;20267;-77
2023/01/14 04:16:19;;;;;;;22.50;5.03;;;;;;;;;;5072954;28;20240;-77
2023/01/14 04:18:45;;;;;;;18.83;4.30;;;;;;;;;;5066087;28;20232;-77
2023/01/14 04:21:10;;;;;;;18.33;3.53;;;;;;;;;;5073052;28;20177;-77
2023/01/14 04:23:35;;;;;;;12.60;4.60;;;;;;;;;;5072854;28;20199;-77
2023/01/14 04:26:00;;;;;;;13.63;4.23;;;;;;;;;;5071686;28;20674;-77
2023/01/14 04:28:26;;;;;;;18.03;4.30;;;;;;;;;;5072333;28;20234;-77
2023/01/14 04:30:51;;;;;;;18.40;4.07;;;;;;;;;;5072098;28;20200;-77
2023/01/14 04:33:17;;;;;;;18.37;3.67;;;;;;;;;;5073550;28;20544;-77
2023/01/14 04:35:44;;;;;;;14.27;4.50;;;;;;;;;;5070781;28;20670;-77
2023/01/14 04:38:09;;;;;;;19.00;4.47;;;;;;;;;;5071635;28;20185;-77
2023/01/14 04:40:34;;;;;;;19.63;4.40;;;;;;;;;;5072414;28;20184;-77
2023/01/14 04:42:59;;;;;;;24.07;4.67;;;;;;;;;;5086809;28;20169;-77
2023/01/14 04:45:24;;;;;;;14.83;3.67;;;;;;;;;;5070397;28;20264;-77
2023/01/14 04:47:50;;;;;;;21.27;5.97;;;;;;;;;;5077097;28;20287;-77
2023/01/14 04:50:30;;;;;;;20.03;4.70;;;;;;;;;;5078126;28;20184;-77
2023/01/14 04:52:56;;;;;;;21.87;3.90;;;;;;;;;;5072827;28;20184;-77
2023/01/14 04:55:21;;;;;;;19.03;4.50;;;;;;;;;;5072312;28;20191;-77
2023/01/14 04:57:46;;;;;;;16.37;4.43;;;;;;;;;;5071821;28;20590;-76
2023/01/14 05:00:12;;;;;;;22.67;3.80;;;;;;;;;;5070866;28;20229;-76
2023/01/14 05:02:37;;;;;;;17.77;3.77;;;;;;;;;;5071320;28;20173;-76
2023/01/14 05:05:02;;;;;;;28.27;6.03;;;;;;;;;;5070302;28;20179;-76
2023/01/14 05:07:28;;;;;;;27.53;5.57;;;;;;;;;;5074525;28;20203;-75
2023/01/14 05:09:53;;;;;;;13.07;3.37;;;;;;;;;;5070050;28;20219;-75
2023/01/14 05:12:18;;;;;;;12.13;3.40;;;;;;;;;;5071536;28;20181;-77
2023/01/14 05:14:43;;;;;;;15.80;4.73;;;;;;;;;;5071064;28;20642;-77
2023/01/14 05:17:08;;;;;;;14.20;3.40;;;;;;;;;;5069729;28;20207;-77
2023/01/14 05:19:34;;;;;;;22.57;4.37;;;;;;;;;;5061113;28;20193;-75
2023/01/14 05:22:00;;;;;;;19.43;3.20;;;;;;;;;;5071105;28;20177;-77
2023/01/14 05:24:25;;;;;;;23.23;2.97;;;;;;;;;;5069807;28;20544;-77
2023/01/14 05:26:51;;;;;;;14.47;3.07;;;;;;;;;;5071271;28;20200;-76
2023/01/14 05:29:16;;;;;;;18.70;4.83;;;;;;;;;;5070347;28;20177;-76
2023/01/14 05:31:41;;;;;;;21.67;5.20;;;;;;;;;;5070233;28;20185;-76
2023/01/14 05:34:06;;;;;;;13.27;2.80;;;;;;;;;;5070416;28;20634;-76
2023/01/14 05:36:31;;;;;;;12.13;3.37;;;;;;;;;;5070635;28;20192;-76
2023/01/14 05:38:57;;;;;;;19.13;4.50;;;;;;;;;;5070390;28;20200;-76
2023/01/14 05:41:22;;;;;;;19.03;3.57;;;;;;;;;;5069758;28;20184;-76
2023/01/14 05:46:31;;;;;;;20.37;3.90;;;;;;;;;;5073051;28;20203;-76
2023/01/14 05:48:56;;;;;;;9.13;2.73;;;;;;;;;;5068686;28;20176;-76
2023/01/14 05:51:21;;;;;;;17.57;4.17;;;;;;;;;;5071350;28;20255;-76
2023/01/14 05:53:46;;;;;;;11.73;2.47;;;;;;;;;;5069484;28;20538;-76
2023/01/14 05:56:12;;;;;;;17.57;3.53;;;;;;;;;;5069543;28;20213;-76
2023/01/14 05:58:37;;;;;;;10.67;2.63;;;;;;;;;;5069243;28;20674;-76
2023/01/14 06:06:36;;;;;;;16.40;2.83;;;;;;;;;;5070195;28;20573;-76
2023/01/14 06:09:03;;;;;;;14.80;4.33;;;;;;;;;;5069993;28;20185;-76
2023/01/14 06:11:29;;;;;;;12.83;3.87;;;;;;;;;;5070236;28;20245;-76
2023/01/14 06:13:57;;;;;;;14.70;3.07;;;;;;;;;;5069929;28;20180;-76
2023/01/14 06:16:23;;;;;;;17.67;3.57;;;;;;;;;;5069395;28;20189;-76
2023/01/14 06:18:48;;;;;;;21.90;4.47;;;;;;;;;;5062990;28;20287;-77
2023/01/14 06:21:15;;;;;;;14.20;3.10;;;;;;;;;;5061427;28;20227;-74
2023/01/14 06:23:40;;;;;;;13.43;3.03;;;;;;;;;;5063001;28;20705;-75
2023/01/14 06:26:13;;;;;;;15.70;2.90;;;;;;;;;;5069973;28;20291;-75
2023/01/14 06:28:39;;;;;;;25.37;6.07;;;;;;;;;;5062431;28;20756;-76
2023/01/14 06:31:15;;;;;;;15.70;3.30;;;;;;;;;;5069947;28;20364;-75
2023/01/14 06:33:40;;;;;;;12.93;3.10;;;;;;;;;;5071618;28;20662;-75
2023/01/14 06:36:07;;;;;;;9.33;2.47;;;;;;;;;;5071850;28;20204;-77
2023/01/14 06:38:32;;;;;;;11.13;2.97;;;;;;;;;;5070393;28;20193;-75
2023/01/14 06:40:58;;;;;;;11.83;3.00;;;;;;;;;;5070611;28;20195;-75
2023/01/14 06:43:23;;;;;;;21.87;3.57;;;;;;;;;;5086108;28;20646;-75
2023/01/14 06:45:52;;;;;;;10.97;3.17;;;;;;;;;;5069104;28;20207;-75
2023/01/14 06:48:17;;;;;;;14.17;2.97;;;;;;;;;;5070454;28;20588;-75
2023/01/14 06:50:42;;;;;;;13.87;2.60;;;;;;;;;;5070518;28;20227;-76
2023/01/14 06:53:08;;;;;;;12.30;2.43;;;;;;;;;;5070693;28;20185;-76
2023/01/14 06:55:33;;;;;;;15.20;2.73;;;;;;;;;;5068627;28;20181;-76
2023/01/14 06:57:58;;;;;;;17.07;4.07;;;;;;;;;;5070216;28;20255;-76
2023/01/14 07:00:23;;;;;;;15.27;2.73;;;;;;;;;;5066140;28;20188;-76
2023/01/14 07:02:48;;;;;;;8.53;2.30;;;;;;;;;;5069358;28;20210;-77
2023/01/14 07:05:15;;;;;;;11.33;3.80;;;;;;;;;;5068779;28;20169;-76
2023/01/14 07:07:41;;;;;;;11.10;3.53;;;;;;;;;;5063259;28;20233;-77
2023/01/14 07:10:06;;;;;;;20.87;3.70;;;;;;;;;;5056288;28;20220;-75
2023/01/14 07:12:31;;;;;;;14.07;2.90;;;;;;;;;;5070057;28;20185;-77
2023/01/14 07:14:57;;;;;;;11.53;3.33;;;;;;;;;;5069010;28;20200;-76
2023/01/14 07:17:22;;;;;;;20.10;3.33;;;;;;;;;;5058509;28;20197;-76
2023/01/14 07:19:47;;;;;;;12.03;3.37;;;;;;;;;;5055755;28;20228;-77
2023/01/14 07:22:12;;;;;;;14.53;3.00;;;;;;;;;;5054237;28;20183;-77
2023/01/14 07:24:37;;;;;;;11.67;3.27;;;;;;;;;;5053939;28;20713;-75
2023/01/14 07:27:03;;;;;;;11.47;3.00;;;;;;;;;;5053975;28;20193;-77
2023/01/14 07:29:28;;;;;;;17.20;3.47;;;;;;;;;;5058036;28;20329;-75
2023/01/14 07:31:53;;;;;;;8.50;3.20;;;;;;;;;;5055029;28;20185;-77
2023/01/14 07:34:19;;;;;;;11.20;2.77;;;;;;;;;;5057482;28;20188;-77
2023/01/14 07:36:44;;;;;;;13.23;2.60;;;;;;;;;;5054944;28;20300;-77
2023/01/14 07:39:09;;;;;;;12.37;3.40;;;;;;;;;;5056395;28;20196;-76
2023/01/14 07:41:34;;;;;;;11.30;2.70;;;;;;;;;;5055540;28;20170;-77
2023/01/14 07:44:00;;;;;;;14.30;2.57;;;;;;;;;;5055829;28;20176;-77
2023/01/14 07:46:26;;;;;;;10.63;2.50;;;;;;;;;;5088817;28;20189;-77
2023/01/14 07:48:51;;;;;;;10.43;2.40;;;;;;;;;;5061854;28;20651;-77
2023/01/14 07:51:20;;;;;;;12.57;2.53;;;;;;;;;;5087975;28;20242;-77
2023/01/14 07:53:45;;;;;;;13.60;3.33;;;;;;;;;;5073655;28;20230;-77
2023/01/14 07:56:11;;;;;;;11.20;2.93;;;;;;;;;;5088518;28;20587;-76
2023/01/14 07:58:36;;;;;;;9.73;2.23;;;;;;;;;;5073193;28;20823;-77
2023/01/14 08:01:05;;;;;;;5.63;1.97;;;;;;;;;;5073338;28;20184;-77
2023/01/14 08:03:30;;;;;;;9.17;3.27;;;;;;;;;;5073078;28;20169;-75
2023/01/14 08:05:55;;;;;;;10.73;2.90;;;;;;;;;;5069268;28;20169;-75
2023/01/14 08:08:20;;;;;;;9.50;2.93;;;;;;;;;;5071477;28;20187;-75
2023/01/14 08:10:45;;;;;;;7.53;2.50;;;;;;;;;;5071107;28;20181;-75
2023/01/14 08:13:11;;;;;;;7.27;2.70;;;;;;;;;;5072881;28;20173;-75
2023/01/14 08:15:37;;;;;;;7.13;2.30;;;;;;;;;;5072130;28;20172;-75
2023/01/14 08:18:02;;;;;;;13.27;3.10;;;;;;;;;;5053503;28;20197;-76
2023/01/14 08:20:27;;;;;;;9.60;2.77;;;;;;;;;;5063135;28;20650;-78
2023/01/14 08:22:56;;;;;;;8.40;3.33;;;;;;;;;;5053549;28;20235;-78
2023/01/14 08:25:21;;;;;;;4.87;2.60;;;;;;;;;;5072077;28;20177;-77
2023/01/14 08:27:46;;;;;;;14.20;3.60;;;;;;;;;;5053683;28;20200;-77
2023/01/14 08:30:12;;;;;;;8.17;3.20;;;;;;;;;;5055223;28;20197;-76
2023/01/14 08:32:37;;;;;;;10.73;3.07;;;;;;;;;;5074291;28;20576;-75
2023/01/14 08:35:02;;;;;;;6.57;2.63;;;;;;;;;;5057486;28;20182;-75
2023/01/14 08:37:28;;;;;;;12.37;3.47;;;;;;;;;;5067738;28;20631;-76
2023/01/14 08:39:53;;;;;;;11.47;3.23;;;;;;;;;;5054656;28;20231;-75
2023/01/14 08:42:18;;;;;;;9.63;4.37;;;;;;;;;;5053080;28;20663;-75
2023/01/14 08:44:43;;;;;;;9.43;3.77;;;;;;;;;;5073363;28;20669;-75
2023/01/14 08:47:09;;;;;;;6.63;3.27;;;;;;;;;;5061035;28;20188;-76
2023/01/14 08:49:34;;;;;;;9.47;3.20;;;;;;;;;;5052380;28;20185;-75
2023/01/14 08:51:59;;;;;;;7.97;3.03;;;;;;;;;;5052877;28;20173;-76
2023/01/14 08:54:24;;;;;;;6.40;3.00;;;;;;;;;;5052352;28;20177;-76
2023/01/14 08:56:49;;;;;;;9.13;3.60;;;;;;;;;;5068080;28;20209;-76
2023/01/14 08:59:15;;;;;;;4.97;3.20;;;;;;;;;;5054217;28;20196;-76
2023/01/14 09:01:40;;;;;;;6.83;4.23;;;;;;;;;;5052059;28;20181;-76
2023/01/14 09:04:05;;;;;;;6.57;3.20;;;;;;;;;;5058330;28;20177;-76
2023/01/14 09:06:30;;;;;;;7.10;3.27;;;;;;;;;;5063667;28;20250;-77
2023/01/14 09:17:10;;;;;;;6.90;3.87;;;;;;;;;;5054756;28;20220;-77
2023/01/14 09:19:42;;;;;;;5.23;2.93;;;;;;;;;;5049802;28;20733;-77
2023/01/14 09:22:09;;;;;;;8.40;3.40;;;;;;;;;;5060634;28;20251;-77
2023/01/14 09:24:34;;;;;;;7.87;3.53;;;;;;;;;;5053812;28;20638;-76
2023/01/14 09:26:59;;;;;;;11.47;3.40;;;;;;;;;;5053739;28;20197;-75
2023/01/14 09:29:25;;;;;;;4.77;2.83;;;;;;;;;;5058860;28;20188;-78
2023/01/14 09:31:50;;;;;;;8.07;3.13;;;;;;;;;;5068712;28;20193;-75
2023/01/14 09:34:15;;;;;;;5.97;2.93;;;;;;;;;;5052742;28;20192;-75
2023/01/14 09:36:40;;;;;;;5.83;3.30;;;;;;;;;;5068474;28;20229;-75
2023/01/14 09:39:05;;;;;;;8.47;3.70;;;;;;;;;;5053954;28;20578;-75
2023/01/14 09:41:32;;;;;;;4.13;2.67;;;;;;;;;;5050582;28;20174;-77
2023/01/14 09:43:59;;;;;;;9.47;3.87;;;;;;;;;;5050943;28;20181;-77
2023/01/14 09:46:25;;;;;;;7.10;2.77;;;;;;;;;;5054209;28;20205;-77
2023/01/14 09:48:51;;;;;;;8.23;3.13;;;;;;;;;;5052942;28;20185;-78
2023/01/14 09:51:26;;;;;;;5.80;2.70;;;;;;;;;;5052225;28;20185;-77
2023/01/14 09:54:02;;;;;;;6.37;2.60;;;;;;;;;;5051934;28;20562;-77
2023/01/14 09:56:32;;;;;;;4.33;2.40;;;;;;;;;;5067415;28;20208;-75
2023/01/14 09:59:00;;;;;;;5.90;2.30;;;;;;;;;;5051072;28;20200;-75
2023/01/14 10:01:26;;;;;;;6.73;2.30;;;;;;;;;;5055436;28;20208;-78
2023/01/14 10:04:15;;;;;;;5.93;3.00;;;;;;;;;;5057543;28;20181;-78
2023/01/14 10:06:42;;;;;;;5.30;2.20;;;;;;;;;;5053639;28;20280;-77
2023/01/14 10:09:17;;;;;;;4.30;2.40;;;;;;;;;;5059198;28;20225;-77
2023/01/14 10:11:44;;;;;;;7.17;2.67;;;;;;;;;;5057133;28;20188;-77
2023/01/14 10:14:16;;;;;;;5.70;2.27;;;;;;;;;;5064357;28;20665;-78
2023/01/14 10:16:43;;;;;;;3.77;2.03;;;;;;;;;;5053669;28;20216;-78
2023/01/14 10:19:13;;;;;;;4.37;1.93;;;;;;;;;;5052037;28;20201;-77
2023/01/14 10:21:57;;;;;;;6.00;1.97;;;;;;;;;;5062004;28;20180;-78
2023/01/14 10:24:22;;;;;;;8.43;2.57;;;;;;;;;;5067039;28;20741;-78
2023/01/14 10:26:49;;;;;;;5.83;2.63;;;;;;;;;;5065828;28;20280;-78
2023/01/14 10:29:24;;;;;;;5.90;1.77;;;;;;;;;;5069954;28;20268;-78
2023/01/14 10:31:58;;;;;;;3.77;1.80;;;;;;;;;;5069026;28;20216;-77
2023/01/14 10:34:25;;;;;;;4.17;1.87;;;;;;;;;;5071571;28;20181;-78
2023/01/14 10:36:51;;;;;;;3.10;1.97;;;;;;;;;;5068815;28;20212;-77
2023/01/14 10:39:16;;;;;;;7.03;2.10;;;;;;;;;;5069779;28;20197;-77
2023/01/14 10:41:50;;;;;;;6.77;2.20;;;;;;;;;;5062450;28;20251;-77
2023/01/14 10:44:15;;;;;;;8.40;3.13;;;;;;;;;;5070862;28;20180;-77
2023/01/14 10:46:42;;;;;;;5.33;2.30;;;;;;;;;;5065718;28;20193;-77
2023/01/14 10:49:21;;;;;;;3.83;1.53;;;;;;;;;;5067006;28;20180;-77
2023/01/14 10:51:50;;;;;;;2.63;1.27;;;;;;;;;;5081431;28;20192;-77
2023/01/14 10:54:15;;;;;;;5.37;1.70;;;;;;;;;;5066800;28;20264;-78
2023/01/14 10:56:42;;;;;;;2.97;1.40;;;;;;;;;;5069547;28;20353;-79
2023/01/14 10:59:26;;;;;;;2.17;1.27;;;;;;;;;;5075354;28;20695;-76
2023/01/14 11:01:52;;;;;;;2.53;1.10;;;;;;;;;;5073670;28;20204;-77
2023/01/14 11:04:17;;;;;;;2.33;1.17;;;;;;;;;;5074905;28;20642;-78
2023/01/14 11:06:43;;;;;;;2.43;1.50;;;;;;;;;;5072660;28;20262;-77
2023/01/14 11:09:17;;;;;;;3.50;1.53;;;;;;;;;;5077490;28;20188;-78
2023/01/14 11:11:42;;;;;;;5.27;1.70;;;;;;;;;;5073790;28;20173;-78
2023/01/14 11:14:17;;;;;;;4.67;1.70;;;;;;;;;;5074737;28;20185;-78
2023/01/14 11:16:42;;;;;;;5.00;1.40;;;;;;;;;;5069990;28;20700;-78
2023/01/14 11:19:21;;;;;;;4.33;2.10;;;;;;;;;;5069119;28;20421;-78
2023/01/14 11:21:54;;;;;;;3.77;1.37;;;;;;;;;;5071891;28;20594;-77
2023/01/14 11:24:39;;;;;;;3.63;1.30;;;;;;;;;;5074064;28;20173;-76
2023/01/14 11:27:19;;;;;;;3.33;1.10;;;;;;;;;;5069293;28;20201;-76
2023/01/14 11:29:45;;;;;;;6.20;1.50;;;;;;;;;;5064696;28;20185;-77
2023/01/14 11:32:12;;;;;;;4.33;1.50;;;;;;;;;;5091724;28;20331;-78
2023/01/14 11:34:46;;;;;;;2.23;1.07;;;;;;;;;;5075885;28;20176;-78
2023/01/14 11:37:17;;;;;;;1.53;1.40;;;;;;;;;;5074559;28;20192;-78
2023/01/14 11:40:02;;;;;;;1.97;1.30;;;;;;;;;;5075355;28;20203;-78
2023/01/14 11:42:27;;;;;;;2.77;1.47;;;;;;;;;;5069873;28;20234;-78
2023/01/14 11:44:56;;;;;;;1.60;1.20;;;;;;;;;;5072872;28;20173;-78
2023/01/14 11:47:22;;;;;;;4.03;1.63;;;;;;;;;;5074334;28;20220;-78
2023/01/14 11:49:48;;;;;;;4.53;1.37;;;;;;;;;;5069018;28;20235;-78
2023/01/14 11:52:20;;;;;;;2.23;1.23;;;;;;;;;;5089560;28;20272;-78
2023/01/14 11:54:47;;;;;;;2.37;1.20;;;;;;;;;;5071777;28;20180;-77
2023/01/14 11:57:16;;;;;;;3.70;1.20;;;;;;;;;;5079327;28;20705;-78
2023/01/14 11:59:42;;;;;;;3.07;1.20;;;;;;;;;;5069649;28;20288;-79
2023/01/14 12:02:10;;;;;;;1.67;1.33;;;;;;;;;;5067996;28;20605;-79
2023/01/14 12:04:41;;;;;;;2.97;1.63;;;;;;;;;;5053268;28;20165;-79
2023/01/14 12:07:09;;;;;;;1.23;1.07;;;;;;;;;;5070027;28;20189;-79
2023/01/14 12:09:44;;;;;;;2.57;1.27;;;;;;;;;;5067754;28;20866;-77
2023/01/14 12:12:23;;;;;;;1.97;1.27;;;;;;;;;;5058503;28;20180;-77
2023/01/14 12:17:40;;;;;;;1.57;1.13;;;;;;;;;;5058411;28;20266;-79
2023/01/14 12:20:16;;;;;;;1.67;0.97;;;;;;;;;;5053615;28;20264;-79
2023/01/14 12:22:47;;;;;;;3.33;1.40;;;;;;;;;;5052484;28;20575;-78
2023/01/14 12:25:18;;;;;;;4.70;1.77;;;;;;;;;;5054942;28;20170;-79
2023/01/14 12:27:56;;;;;;;1.67;0.97;;;;;;;;;;5054257;28;20744;-79
2023/01/14 12:30:25;;;;;;;1.27;1.10;;;;;;;;;;5054466;28;20185;-78
2023/01/14 12:33:00;;;;;;;2.70;1.00;;;;;;;;;;5056187;28;20188;-77
2023/01/14 12:35:27;;;;;;;4.63;1.30;;;;;;;;;;5057816;28;20189;-79
2023/01/14 12:37:54;;;;;;;3.30;1.20;;;;;;;;;;5053154;28;20201;-79
2023/01/14 12:46:09;;;;;;;2.13;0.90;;;;;;;;;;5054175;28;20192;-79
2023/01/14 12:48:34;;;;;;;5.23;1.50;;;;;;;;;;5059538;28;20195;-79
2023/01/14 12:51:03;;;;;;;2.83;1.30;;;;;;;;;;5055116;28;20173;-79
2023/01/14 12:53:43;;;;;;;1.53;1.13;;;;;;;;;;5054281;28;20196;-80
2023/01/14 12:56:16;;;;;;;1.40;1.23;;;;;;;;;;5054218;28;20730;-79
2023/01/14 12:58:50;;;;;;;2.53;1.60;;;;;;;;;;5061071;28;20208;-79
2023/01/14 13:01:21;;;;;;;2.60;1.20;;;;;;;;;;5055654;28;20265;-79
2023/01/14 13:03:47;;;;;;;2.00;1.13;;;;;;;;;;5058443;28;20231;-79
2023/01/14 13:06:19;;;;;;;4.23;1.20;;;;;;;;;;5052857;28;20208;-80
2023/01/14 13:08:51;;;;;;;1.87;1.23;;;;;;;;;;5060891;28;20193;-80
2023/01/14 13:11:23;;;;;;;1.93;1.30;;;;;;;;;;5063624;28;20234;-80
2023/01/14 13:13:52;;;;;;;3.63;1.50;;;;;;;;;;5064139;28;20181;-80
2023/01/14 13:16:33;;;;;;;2.60;1.67;;;;;;;;;;5063363;28;20201;-80
2023/01/14 13:19:00;;;;;;;2.03;1.67;;;;;;;;;;5057516;28;20228;-80
2023/01/14 13:21:44;;;;;;;1.87;1.40;;;;;;;;;;5056491;28;20205;-80
2023/01/14 13:24:26;;;;;;;1.93;1.60;;;;;;;;;;5076958;28;20177;-79
2023/01/14 13:26:53;;;;;;;1.43;1.33;;;;;;;;;;5060820;28;20217;-79
2023/01/14 13:29:21;;;;;;;1.60;1.33;;;;;;;;;;5062482;28;20185;-80
2023/01/14 13:31:48;;;;;;;2.70;1.67;;;;;;;;;;5059223;28;20252;-79
2023/01/14 13:34:22;;;;;;;2.53;1.77;;;;;;;;;;5063123;28;20583;-79
2023/01/14 13:36:48;;;;;;;3.17;1.70;;;;;;;;;;5061183;28;20212;-78
2023/01/14 13:39:18;;;;;;;3.20;1.80;;;;;;;;;;5057645;28;20216;-79
2023/01/14 13:41:46;;;;;;;1.93;1.73;;;;;;;;;;5065838;28;20235;-78
2023/01/14 13:44:31;;;;;;;2.20;2.00;;;;;;;;;;5075217;28;20589;-79
2023/01/14 13:46:58;;;;;;;2.63;1.97;;;;;;;;;;5059620;28;20280;-79
2023/01/14 13:49:24;;;;;;;1.50;1.40;;;;;;;;;;5063317;28;20590;-79
2023/01/14 13:51:49;;;;;;;3.80;2.00;;;;;;;;;;5061188;28;20268;-78
2023/01/14 13:54:15;;;;;;;1.90;1.70;;;;;;;;;;5056124;28;20181;-78
2023/01/14 13:56:49;;;;;;;1.97;1.60;;;;;;;;;;5061559;28;20212;-79
2023/01/14 13:59:25;;;;;;;3.23;1.93;;;;;;;;;;5056957;28;20319;-79
2023/01/14 14:01:50;;;;;;;3.40;2.00;;;;;;;;;;5058194;28;20274;-79
2023/01/14 14:04:35;;;;;;;2.63;2.10;;;;;;;;;;5061177;28;20603;-78
2023/01/14 14:07:00;;;;;;;3.90;1.90;;;;;;;;;;5057223;28;20316;-79
2023/01/14 14:09:33;;;;;;;2.67;1.80;;;;;;;;;;5055313;28;20268;-79
2023/01/14 14:12:03;;;;;;;3.10;2.00;;;;;;;;;;5055054;28;20665;-79
2023/01/14 14:14:31;;;;;;;4.30;1.80;;;;;;;;;;5069336;28;20178;-79
2023/01/14 14:17:03;;;;;;;3.10;1.87;;;;;;;;;;5056858;28;20193;-79
2023/01/14 14:19:32;;;;;;;3.47;1.67;;;;;;;;;;5053370;28;20255;-79
2023/01/14 14:22:05;;;;;;;3.53;2.30;;;;;;;;;;5057662;28;20523;-80
2023/01/14 14:24:30;;;;;;;2.53;1.90;;;;;;;;;;5078139;28;20184;-79
2023/01/14 14:26:58;;;;;;;5.80;1.80;;;;;;;;;;5059469;28;20196;-79
2023/01/14 14:29:24;;;;;;;2.30;2.10;;;;;;;;;;5062293;28;20239;-79
2023/01/14 14:31:49;;;;;;;4.03;1.97;;;;;;;;;;5061532;28;20251;-79
2023/01/14 14:34:20;;;;;;;2.07;1.67;;;;;;;;;;5064408;28;21304;-79
2023/01/14 14:36:47;;;;;;;2.30;1.67;;;;;;;;;;5060040;28;20254;-79
2023/01/14 14:39:19;;;;;;;2.05;1.83;;;;;;;;;;5057526;28;20201;-80
2023/01/14 14:41:45;;;;;;;1.93;1.63;;;;;;;;;;5060434;28;20238;-80
2023/01/14 14:44:20;;;;;;;3.43;2.07;;;;;;;;;;5060812;28;20181;-80
2023/01/14 14:46:46;;;;;;;1.42;1.33;;;;;;;;;;5059969;28;20203;-80
2023/01/14 14:49:21;;;;;;;2.20;1.90;;;;;;;;;;5058411;28;20177;-80
2023/01/14 14:51:48;;;;;;;1.87;1.40;;;;;;;;;;5074455;28;20238;-79
2023/01/14 14:54:32;;;;;;;1.30;1.20;;;;;;;;;;5058923;28;20193;-79
2023/01/14 14:57:03;;;;;;;1.43;1.33;;;;;;;;;;5061464;28;20266;-79
2023/01/14 14:59:29;;;;;;;1.93;1.37;;;;;;;;;;5061037;28;22297;-80
2023/01/14 15:01:55;;;;;;;1.90;1.57;;;;;;;;;;5061050;28;20173;-79
2023/01/14 15:04:21;;;;;;;1.92;1.27;;;;;;;;;;5065875;28;20259;-79
2023/01/14 15:06:46;;;;;;;2.67;1.70;;;;;;;;;;5061630;28;20189;-79
2023/01/14 15:09:14;;;;;;;1.93;1.50;;;;;;;;;;5073742;28;20249;-79
2023/01/14 15:11:43;;;;;;;2.77;1.37;;;;;;;;;;5065058;28;20189;-79